Las Palmas de Gran Canaria, Spain

11:40 AM WET en Enero 16, 2018 (GMT +0000)
Tejeda, Lomo de los Santos | | Change Station

Alt 3609 ft 28.00 °N, 15.61 °W | Updated 3 seconds ago

Mostly Cloudy
Muy nublado
45.9 ° F
Sensación térmica 43 ° F
N
6.2
Viento Variable Viento desde OSO
Gusts 6.2 mph

Hoy
Alta -- | Baja -- ° F
--% Posibilidad de precipitaciones
Ayer
Alta -- | Baja -- ° F
Precip. -- pul
Presión 30.36 pul
Visibilidad 6.2 Millas
Nubes Nubes dispersas 2100 ft
Muy nublado 3200 ft
Vientos helados 43 ° F
Punto de rocío 43 ° F
Humedad 90%
Precipitaciones 0.08 pul
Espesor de la nieve No disponible.
7:55 AM 6:29 PM
Creciente menguante, 0% visible
METAR GCXO 161130Z 35011KT 320V030 9999 SCT021 BKN032 13/08 Q1028 WS R30 NOSIG
Presión 30.36 pul
Visibilidad 6.2 Millas
Nubes Nubes dispersas 2100 ft
Muy nublado 3200 ft
Vientos helados 43 ° F
Punto de rocío 43 ° F
Humedad 90%
Precipitaciones 0.08 pul
Espesor de la nieve No disponible.
7:55 AM 6:29 PM
Creciente menguante, 0% visible
METAR GCXO 161130Z 35011KT 320V030 9999 SCT021 BKN032 13/08 Q1028 WS R30 NOSIG

Get Severe Weather Alerts

Thanks for signing up!

Be on the lookout for a verification email in your inbox.

You'll start receiving the daily forecast at 6 AM.

×

10-Day Weather Forecast

×

Almanac

Astronomía

Jan. 16, 2018 Salida Puesta
Hora real
Crepúsculo civil
Crepúsculo náutico
Crepúsculo astronómico
Luna
Horas de luz
Horas de luz
Tomorrow will be .
, % of the Moon is Illuminated

Extremos de hoy

Máximos del país Bajas del país

Community

WunderPhotos

Category 6

Welcome to Category 6. This is the collective home for Weather Underground's featured writeups by Dr. Jeff Masters (right), Bob Henson (left), Chris Burt, and other regular contributors.

Nearby

Calidad del aire

  Calidad del aire Índice AQ Contaminante
Not available.

Grosos de nieve

Estación Profundido Altura

Actividad de terremotos

Ciudad Distance Mag. Tiempo y dato
Magnitud mínima muestra es 2,5.

Temperaturas de aguas costeras

Lugar Temperatura

Stations

Estaciones meteorológicas cercanas

Ubicación de la estación Temp. Vientos helados Punto de rocío Humedad Viento Precip. Alt Actualizado Tipo